Главная страница
METAR-TAF:

METAR-TAF

Аэропорты :

Waterbury-Oxford Airport

Оксфорд, Коннектикут, США

широта: 41-29N, долгота: 073-08W, высота над уровнем моря: 222 м

Текущие метеонаблюдения

Эта сводка был подготовлена 27 минут назад, в 22:51 UTC
Ветер 8 Узел от южный-юго-западный с порывами до 15 Узел
Температура 18°C
Влажность 77%
Давление 1012 hPa
Видимость: 16.1 км
Отдельные облака на высоте 10000 фута

METAR: KOXC 232251Z 20008G15KT 10SM SCT100 18/14 A2989 RMK AO2 SLP133 T01830144

Время: 19:18 (23:18 UTC)


TAF: отсутствует

Метеонаблюдения и прогнозы для более 4000 аэропортов (сводки METAR и TAF).

Имеющиеся станции представлены на карте желтыми и красными точками.

Чтобы увидеть название станции, наведите на нее мышь.

Затем щелкните, чтобы увидеть метеонаблюдения и метеопрогнозы.

Управление картой: чтобы увеличить масштаб, щелкните зеленые кнопки с черным крестиком; чтобы уменьшить масштаб, щелкните зеленую кнопку с тире; для просмотра соседних карт щелкайте зеленые стрелки.


METAR-TAF: